sensor_id;sensor_type;location;lat;lon;timestamp;P1;durP1;ratioP1;P2;durP2;ratioP2
59468;SDS011;45277;52.768;18.262;2022-07-29T00:00:37;7.63;;;5.25;;
59468;SDS011;45277;52.768;18.262;2022-07-29T00:02:10;9.75;;;5.63;;
59468;SDS011;45277;52.768;18.262;2022-07-29T00:03:42;7.53;;;4.78;;
59468;SDS011;45277;52.768;18.262;2022-07-29T00:05:13;7.18;;;4.70;;
59468;SDS011;45277;52.768;18.262;2022-07-29T00:06:44;8.52;;;4.65;;
59468;SDS011;45277;52.768;18.262;2022-07-29T00:08:17;7.82;;;4.25;;
59468;SDS011;45277;52.768;18.262;2022-07-29T00:09:50;8.70;;;3.95;;
59468;SDS011;45277;52.768;18.262;2022-07-29T00:11:23;7.18;;;4.25;;
59468;SDS011;45277;52.768;18.262;2022-07-29T00:12:54;13.05;;;4.15;;
59468;SDS011;45277;52.768;18.262;2022-07-29T00:14:27;11.90;;;4.20;;
59468;SDS011;45277;52.768;18.262;2022-07-29T00:15:59;9.18;;;4.43;;
59468;SDS011;45277;52.768;18.262;2022-07-29T00:17:30;6.32;;;4.32;;
59468;SDS011;45277;52.768;18.262;2022-07-29T00:19:02;8.75;;;4.20;;
59468;SDS011;45277;52.768;18.262;2022-07-29T00:20:34;6.68;;;4.53;;
59468;SDS011;45277;52.768;18.262;2022-07-29T00:22:05;9.35;;;4.50;;
59468;SDS011;45277;52.768;18.262;2022-07-29T00:23:37;8.13;;;5.10;;
59468;SDS011;45277;52.768;18.262;2022-07-29T00:25:08;8.43;;;5.22;;
59468;SDS011;45277;52.768;18.262;2022-07-29T00:26:40;10.73;;;5.07;;
59468;SDS011;45277;52.768;18.262;2022-07-29T00:28:11;9.05;;;5.13;;
59468;SDS011;45277;52.768;18.262;2022-07-29T00:29:49;8.38;;;4.97;;
59468;SDS011;45277;52.768;18.262;2022-07-29T00:31:21;7.18;;;5.00;;
59468;SDS011;45277;52.768;18.262;2022-07-29T00:32:52;12.35;;;5.60;;
59468;SDS011;45277;52.768;18.262;2022-07-29T00:34:31;9.00;;;4.97;;
59468;SDS011;45277;52.768;18.262;2022-07-29T00:36:21;11.05;;;4.60;;
59468;SDS011;45277;52.768;18.262;2022-07-29T00:37:53;11.52;;;4.63;;
59468;SDS011;45277;52.768;18.262;2022-07-29T00:39:24;9.65;;;4.50;;
59468;SDS011;45277;52.768;18.262;2022-07-29T00:40:56;15.07;;;5.30;;
59468;SDS011;45277;52.768;18.262;2022-07-29T00:42:27;11.20;;;5.13;;
59468;SDS011;45277;52.768;18.262;2022-07-29T00:43:59;10.15;;;5.30;;
59468;SDS011;45277;52.768;18.262;2022-07-29T00:45:30;7.03;;;4.55;;
59468;SDS011;45277;52.768;18.262;2022-07-29T00:47:02;10.50;;;4.85;;
59468;SDS011;45277;52.768;18.262;2022-07-29T00:48:33;11.15;;;5.30;;
59468;SDS011;45277;52.768;18.262;2022-07-29T00:50:07;8.48;;;5.13;;
59468;SDS011;45277;52.768;18.262;2022-07-29T00:51:41;9.70;;;4.80;;
59468;SDS011;45277;52.768;18.262;2022-07-29T00:53:13;10.30;;;4.97;;
59468;SDS011;45277;52.768;18.262;2022-07-29T00:54:44;6.82;;;4.78;;
59468;SDS011;45277;52.768;18.262;2022-07-29T00:56:23;8.40;;;4.70;;
59468;SDS011;45277;52.768;18.262;2022-07-29T00:57:55;7.93;;;4.82;;
59468;SDS011;45277;52.768;18.262;2022-07-29T00:59:29;8.95;;;5.03;;
59468;SDS011;45277;52.768;18.262;2022-07-29T01:01:01;12.30;;;5.40;;
59468;SDS011;45277;52.768;18.262;2022-07-29T01:02:32;9.43;;;4.82;;
59468;SDS011;45277;52.768;18.262;2022-07-29T01:04:11;10.88;;;5.05;;
59468;SDS011;45277;52.768;18.262;2022-07-29T01:05:44;10.65;;;6.35;;
59468;SDS011;45277;52.768;18.262;2022-07-29T01:07:19;9.38;;;5.50;;
59468;SDS011;45277;52.768;18.262;2022-07-29T01:08:50;8.75;;;5.43;;
59468;SDS011;45277;52.768;18.262;2022-07-29T01:10:24;10.18;;;5.05;;
59468;SDS011;45277;52.768;18.262;2022-07-29T01:11:57;10.48;;;5.00;;
59468;SDS011;45277;52.768;18.262;2022-07-29T01:13:29;8.02;;;5.38;;
59468;SDS011;45277;52.768;18.262;2022-07-29T01:15:02;11.68;;;6.15;;
59468;SDS011;45277;52.768;18.262;2022-07-29T01:16:58;10.60;;;6.15;;
59468;SDS011;45277;52.768;18.262;2022-07-29T01:18:39;11.35;;;7.55;;
59468;SDS011;45277;52.768;18.262;2022-07-29T01:21:04;8.82;;;5.97;;
59468;SDS011;45277;52.768;18.262;2022-07-29T01:22:40;7.60;;;6.13;;
59468;SDS011;45277;52.768;18.262;2022-07-29T01:30:26;10.70;;;5.70;;
59468;SDS011;45277;52.768;18.262;2022-07-29T01:32:08;10.77;;;6.22;;
59468;SDS011;45277;52.768;18.262;2022-07-29T01:33:45;12.00;;;6.50;;
59468;SDS011;45277;52.768;18.262;2022-07-29T01:35:28;9.40;;;5.75;;
59468;SDS011;45277;52.768;18.262;2022-07-29T01:37:08;16.73;;;6.97;;
59468;SDS011;45277;52.768;18.262;2022-07-29T01:38:51;9.80;;;6.10;;
59468;SDS011;45277;52.768;18.262;2022-07-29T01:44:20;11.25;;;6.10;;
59468;SDS011;45277;52.768;18.262;2022-07-29T01:46:03;13.82;;;5.88;;
59468;SDS011;45277;52.768;18.262;2022-07-29T01:47:40;12.25;;;6.18;;
59468;SDS011;45277;52.768;18.262;2022-07-29T01:49:35;13.18;;;5.85;;
59468;SDS011;45277;52.768;18.262;2022-07-29T01:51:12;13.00;;;6.10;;
59468;SDS011;45277;52.768;18.262;2022-07-29T01:53:01;12.63;;;6.57;;
59468;SDS011;45277;52.768;18.262;2022-07-29T01:54:37;11.02;;;6.40;;
59468;SDS011;45277;52.768;18.262;2022-07-29T01:56:16;9.63;;;5.82;;
59468;SDS011;45277;52.768;18.262;2022-07-29T01:57:50;11.50;;;6.07;;
59468;SDS011;45277;52.768;18.262;2022-07-29T01:59:29;11.60;;;6.07;;
59468;SDS011;45277;52.768;18.262;2022-07-29T02:01:04;12.88;;;5.82;;
59468;SDS011;45277;52.768;18.262;2022-07-29T02:02:37;14.13;;;5.85;;
59468;SDS011;45277;52.768;18.262;2022-07-29T02:04:11;17.27;;;6.28;;
59468;SDS011;45277;52.768;18.262;2022-07-29T02:05:43;11.85;;;6.13;;
59468;SDS011;45277;52.768;18.262;2022-07-29T02:07:19;11.98;;;5.95;;
59468;SDS011;45277;52.768;18.262;2022-07-29T02:08:52;14.55;;;6.63;;
59468;SDS011;45277;52.768;18.262;2022-07-29T02:10:25;14.30;;;6.22;;
59468;SDS011;45277;52.768;18.262;2022-07-29T02:11:59;14.40;;;6.40;;
59468;SDS011;45277;52.768;18.262;2022-07-29T02:13:41;11.90;;;6.50;;
59468;SDS011;45277;52.768;18.262;2022-07-29T02:15:14;10.15;;;7.15;;
59468;SDS011;45277;52.768;18.262;2022-07-29T02:16:54;11.98;;;7.00;;
59468;SDS011;45277;52.768;18.262;2022-07-29T02:18:28;10.02;;;6.72;;
59468;SDS011;45277;52.768;18.262;2022-07-29T02:20:02;14.30;;;6.78;;
59468;SDS011;45277;52.768;18.262;2022-07-29T02:21:35;12.18;;;7.00;;
59468;SDS011;45277;52.768;18.262;2022-07-29T02:23:07;18.50;;;6.93;;
59468;SDS011;45277;52.768;18.262;2022-07-29T02:24:41;13.07;;;6.88;;
59468;SDS011;45277;52.768;18.262;2022-07-29T02:26:14;15.20;;;7.28;;
59468;SDS011;45277;52.768;18.262;2022-07-29T02:27:48;13.45;;;6.90;;
59468;SDS011;45277;52.768;18.262;2022-07-29T02:29:23;10.80;;;6.53;;
59468;SDS011;45277;52.768;18.262;2022-07-29T02:30:58;11.65;;;6.60;;
59468;SDS011;45277;52.768;18.262;2022-07-29T02:32:31;13.05;;;7.00;;
59468;SDS011;45277;52.768;18.262;2022-07-29T02:34:06;13.95;;;7.28;;
59468;SDS011;45277;52.768;18.262;2022-07-29T02:35:40;13.23;;;6.97;;
59468;SDS011;45277;52.768;18.262;2022-07-29T02:37:13;10.38;;;6.70;;
59468;SDS011;45277;52.768;18.262;2022-07-29T02:38:47;13.48;;;6.55;;
59468;SDS011;45277;52.768;18.262;2022-07-29T02:40:23;11.70;;;7.22;;
59468;SDS011;45277;52.768;18.262;2022-07-29T02:42:01;12.60;;;6.97;;
59468;SDS011;45277;52.768;18.262;2022-07-29T02:43:36;13.73;;;7.05;;
59468;SDS011;45277;52.768;18.262;2022-07-29T02:45:08;13.15;;;6.60;;
59468;SDS011;45277;52.768;18.262;2022-07-29T02:46:51;13.13;;;7.22;;
59468;SDS011;45277;52.768;18.262;2022-07-29T02:48:34;14.40;;;6.93;;
59468;SDS011;45277;52.768;18.262;2022-07-29T02:51:45;13.80;;;6.88;;
59468;SDS011;45277;52.768;18.262;2022-07-29T02:53:28;12.77;;;7.15;;
59468;SDS011;45277;52.768;18.262;2022-07-29T02:55:22;11.70;;;7.20;;
59468;SDS011;45277;52.768;18.262;2022-07-29T02:57:19;13.00;;;7.93;;
59468;SDS011;45277;52.768;18.262;2022-07-29T02:58:57;11.90;;;7.32;;
59468;SDS011;45277;52.768;18.262;2022-07-29T03:00:32;21.70;;;8.45;;
59468;SDS011;45277;52.768;18.262;2022-07-29T03:02:07;13.07;;;7.32;;
59468;SDS011;45277;52.768;18.262;2022-07-29T03:03:40;16.45;;;7.95;;
59468;SDS011;45277;52.768;18.262;2022-07-29T03:05:16;12.93;;;7.60;;
59468;SDS011;45277;52.768;18.262;2022-07-29T03:06:50;16.42;;;7.72;;
59468;SDS011;45277;52.768;18.262;2022-07-29T03:08:23;14.18;;;7.65;;
59468;SDS011;45277;52.768;18.262;2022-07-29T03:09:56;12.77;;;7.65;;
59468;SDS011;45277;52.768;18.262;2022-07-29T03:11:30;13.02;;;7.78;;
59468;SDS011;45277;52.768;18.262;2022-07-29T03:13:02;11.82;;;7.60;;
59468;SDS011;45277;52.768;18.262;2022-07-29T03:14:42;14.48;;;7.97;;
59468;SDS011;45277;52.768;18.262;2022-07-29T03:16:20;12.30;;;8.05;;
59468;SDS011;45277;52.768;18.262;2022-07-29T03:17:54;14.55;;;8.30;;
59468;SDS011;45277;52.768;18.262;2022-07-29T03:19:27;14.00;;;7.53;;
59468;SDS011;45277;52.768;18.262;2022-07-29T03:20:59;13.98;;;8.32;;
59468;SDS011;45277;52.768;18.262;2022-07-29T03:22:33;16.20;;;9.55;;
59468;SDS011;45277;52.768;18.262;2022-07-29T03:24:31;13.00;;;8.70;;
59468;SDS011;45277;52.768;18.262;2022-07-29T03:26:05;12.32;;;8.48;;
59468;SDS011;45277;52.768;18.262;2022-07-29T03:27:36;13.68;;;9.02;;
59468;SDS011;45277;52.768;18.262;2022-07-29T03:29:08;14.63;;;9.43;;
59468;SDS011;45277;52.768;18.262;2022-07-29T03:30:39;14.55;;;9.90;;
59468;SDS011;45277;52.768;18.262;2022-07-29T03:32:11;14.48;;;9.45;;
59468;SDS011;45277;52.768;18.262;2022-07-29T03:33:42;22.08;;;10.40;;
59468;SDS011;45277;52.768;18.262;2022-07-29T03:35:13;15.32;;;9.93;;
59468;SDS011;45277;52.768;18.262;2022-07-29T03:36:53;15.48;;;8.98;;
59468;SDS011;45277;52.768;18.262;2022-07-29T03:38:32;14.55;;;9.45;;
59468;SDS011;45277;52.768;18.262;2022-07-29T03:40:06;14.70;;;9.98;;
59468;SDS011;45277;52.768;18.262;2022-07-29T03:41:41;13.82;;;9.73;;
59468;SDS011;45277;52.768;18.262;2022-07-29T03:43:14;10.05;;;8.93;;
59468;SDS011;45277;52.768;18.262;2022-07-29T03:44:48;15.85;;;10.18;;
59468;SDS011;45277;52.768;18.262;2022-07-29T03:46:29;15.45;;;9.43;;
59468;SDS011;45277;52.768;18.262;2022-07-29T03:49:47;14.00;;;9.82;;
59468;SDS011;45277;52.768;18.262;2022-07-29T03:51:24;15.52;;;9.15;;
59468;SDS011;45277;52.768;18.262;2022-07-29T03:53:02;13.57;;;9.02;;
59468;SDS011;45277;52.768;18.262;2022-07-29T03:54:34;16.27;;;8.40;;
59468;SDS011;45277;52.768;18.262;2022-07-29T03:56:05;16.33;;;8.27;;
59468;SDS011;45277;52.768;18.262;2022-07-29T03:57:40;14.43;;;8.13;;
59468;SDS011;45277;52.768;18.262;2022-07-29T03:59:12;13.90;;;7.80;;
59468;SDS011;45277;52.768;18.262;2022-07-29T04:00:49;12.98;;;7.85;;
59468;SDS011;45277;52.768;18.262;2022-07-29T04:02:20;13.35;;;7.82;;
59468;SDS011;45277;52.768;18.262;2022-07-29T04:03:53;13.63;;;8.25;;
59468;SDS011;45277;52.768;18.262;2022-07-29T04:05:25;13.98;;;8.25;;
59468;SDS011;45277;52.768;18.262;2022-07-29T04:06:57;12.70;;;7.43;;
59468;SDS011;45277;52.768;18.262;2022-07-29T04:08:28;12.40;;;8.02;;
59468;SDS011;45277;52.768;18.262;2022-07-29T04:10:00;11.52;;;7.45;;
59468;SDS011;45277;52.768;18.262;2022-07-29T04:11:31;13.57;;;7.50;;
59468;SDS011;45277;52.768;18.262;2022-07-29T04:13:03;9.63;;;6.85;;
59468;SDS011;45277;52.768;18.262;2022-07-29T04:14:35;12.73;;;7.28;;
59468;SDS011;45277;52.768;18.262;2022-07-29T04:16:07;10.50;;;7.10;;
59468;SDS011;45277;52.768;18.262;2022-07-29T04:17:39;13.20;;;6.85;;
59468;SDS011;45277;52.768;18.262;2022-07-29T04:19:11;14.40;;;6.75;;
59468;SDS011;45277;52.768;18.262;2022-07-29T04:20:43;10.98;;;6.32;;
59468;SDS011;45277;52.768;18.262;2022-07-29T04:22:14;12.05;;;6.47;;
59468;SDS011;45277;52.768;18.262;2022-07-29T04:23:48;9.07;;;6.32;;
59468;SDS011;45277;52.768;18.262;2022-07-29T04:25:22;10.13;;;6.03;;
59468;SDS011;45277;52.768;18.262;2022-07-29T04:26:53;9.52;;;6.00;;
59468;SDS011;45277;52.768;18.262;2022-07-29T04:28:25;8.90;;;6.05;;
59468;SDS011;45277;52.768;18.262;2022-07-29T04:29:59;10.07;;;5.72;;
59468;SDS011;45277;52.768;18.262;2022-07-29T04:31:30;6.63;;;5.22;;
59468;SDS011;45277;52.768;18.262;2022-07-29T04:33:03;8.50;;;5.57;;
59468;SDS011;45277;52.768;18.262;2022-07-29T04:34:35;10.18;;;5.35;;
59468;SDS011;45277;52.768;18.262;2022-07-29T04:36:07;10.48;;;5.80;;
59468;SDS011;45277;52.768;18.262;2022-07-29T04:37:39;11.95;;;5.55;;
59468;SDS011;45277;52.768;18.262;2022-07-29T04:39:10;13.70;;;5.80;;
59468;SDS011;45277;52.768;18.262;2022-07-29T04:40:42;13.48;;;5.90;;
59468;SDS011;45277;52.768;18.262;2022-07-29T04:42:14;14.20;;;5.95;;
59468;SDS011;45277;52.768;18.262;2022-07-29T04:43:47;8.27;;;5.53;;
59468;SDS011;45277;52.768;18.262;2022-07-29T04:45:24;16.35;;;6.45;;
59468;SDS011;45277;52.768;18.262;2022-07-29T04:46:56;14.88;;;5.80;;
59468;SDS011;45277;52.768;18.262;2022-07-29T04:48:28;10.80;;;6.20;;
59468;SDS011;45277;52.768;18.262;2022-07-29T04:50:00;13.82;;;5.43;;
59468;SDS011;45277;52.768;18.262;2022-07-29T04:51:31;10.45;;;5.22;;
59468;SDS011;45277;52.768;18.262;2022-07-29T04:53:03;7.93;;;5.03;;
59468;SDS011;45277;52.768;18.262;2022-07-29T04:54:41;9.60;;;5.00;;
59468;SDS011;45277;52.768;18.262;2022-07-29T04:56:12;12.55;;;4.90;;
59468;SDS011;45277;52.768;18.262;2022-07-29T04:57:43;8.75;;;4.65;;
59468;SDS011;45277;52.768;18.262;2022-07-29T04:59:15;5.53;;;4.38;;
59468;SDS011;45277;52.768;18.262;2022-07-29T05:00:46;9.13;;;5.07;;
59468;SDS011;45277;52.768;18.262;2022-07-29T05:02:24;8.70;;;4.80;;
59468;SDS011;45277;52.768;18.262;2022-07-29T05:03:55;11.27;;;4.78;;
59468;SDS011;45277;52.768;18.262;2022-07-29T05:05:27;6.65;;;4.22;;
59468;SDS011;45277;52.768;18.262;2022-07-29T05:07:06;6.32;;;4.20;;
59468;SDS011;45277;52.768;18.262;2022-07-29T05:08:39;7.60;;;4.65;;
59468;SDS011;45277;52.768;18.262;2022-07-29T05:10:10;5.80;;;3.97;;
59468;SDS011;45277;52.768;18.262;2022-07-29T05:11:42;6.50;;;4.00;;
59468;SDS011;45277;52.768;18.262;2022-07-29T05:13:14;9.55;;;4.40;;
59468;SDS011;45277;52.768;18.262;2022-07-29T05:14:48;12.93;;;4.80;;
59468;SDS011;45277;52.768;18.262;2022-07-29T05:16:20;6.63;;;3.50;;
59468;SDS011;45277;52.768;18.262;2022-07-29T05:17:54;6.65;;;3.88;;
59468;SDS011;45277;52.768;18.262;2022-07-29T05:19:25;9.15;;;3.67;;
59468;SDS011;45277;52.768;18.262;2022-07-29T05:20:58;8.15;;;3.80;;
59468;SDS011;45277;52.768;18.262;2022-07-29T05:22:32;6.20;;;3.47;;
59468;SDS011;45277;52.768;18.262;2022-07-29T05:24:14;7.45;;;3.67;;
59468;SDS011;45277;52.768;18.262;2022-07-29T05:25:45;4.70;;;3.90;;
59468;SDS011;45277;52.768;18.262;2022-07-29T05:27:23;6.22;;;3.72;;
59468;SDS011;45277;52.768;18.262;2022-07-29T05:28:57;6.60;;;4.55;;
59468;SDS011;45277;52.768;18.262;2022-07-29T05:30:35;11.63;;;5.85;;
59468;SDS011;45277;52.768;18.262;2022-07-29T05:32:07;7.32;;;5.38;;
59468;SDS011;45277;52.768;18.262;2022-07-29T05:33:41;7.07;;;5.40;;
59468;SDS011;45277;52.768;18.262;2022-07-29T05:35:12;8.70;;;6.40;;
59468;SDS011;45277;52.768;18.262;2022-07-29T05:36:45;11.05;;;5.55;;
59468;SDS011;45277;52.768;18.262;2022-07-29T05:38:16;9.77;;;5.30;;
59468;SDS011;45277;52.768;18.262;2022-07-29T05:39:55;8.25;;;5.68;;
59468;SDS011;45277;52.768;18.262;2022-07-29T05:41:27;8.20;;;5.32;;
59468;SDS011;45277;52.768;18.262;2022-07-29T05:42:59;7.03;;;5.07;;
59468;SDS011;45277;52.768;18.262;2022-07-29T05:44:30;10.30;;;5.80;;
59468;SDS011;45277;52.768;18.262;2022-07-29T05:46:08;7.40;;;5.70;;
59468;SDS011;45277;52.768;18.262;2022-07-29T05:47:40;8.90;;;5.47;;
59468;SDS011;45277;52.768;18.262;2022-07-29T05:49:19;7.72;;;5.65;;
59468;SDS011;45277;52.768;18.262;2022-07-29T05:50:50;9.48;;;5.38;;
59468;SDS011;45277;52.768;18.262;2022-07-29T05:52:22;8.82;;;5.78;;
59468;SDS011;45277;52.768;18.262;2022-07-29T05:53:53;15.20;;;6.15;;
59468;SDS011;45277;52.768;18.262;2022-07-29T05:55:25;9.15;;;5.82;;
59468;SDS011;45277;52.768;18.262;2022-07-29T05:56:56;9.38;;;5.70;;
59468;SDS011;45277;52.768;18.262;2022-07-29T05:58:28;8.80;;;6.25;;
59468;SDS011;45277;52.768;18.262;2022-07-29T05:59:59;9.32;;;5.85;;
59468;SDS011;45277;52.768;18.262;2022-07-29T06:01:30;9.13;;;5.70;;
59468;SDS011;45277;52.768;18.262;2022-07-29T06:03:02;12.23;;;6.30;;
59468;SDS011;45277;52.768;18.262;2022-07-29T06:04:33;8.23;;;6.03;;
59468;SDS011;45277;52.768;18.262;2022-07-29T06:06:05;9.35;;;5.80;;
59468;SDS011;45277;52.768;18.262;2022-07-29T06:07:38;7.65;;;5.82;;
59468;SDS011;45277;52.768;18.262;2022-07-29T06:09:09;12.35;;;6.20;;
59468;SDS011;45277;52.768;18.262;2022-07-29T06:10:40;8.63;;;6.18;;
59468;SDS011;45277;52.768;18.262;2022-07-29T06:12:11;10.88;;;6.30;;
59468;SDS011;45277;52.768;18.262;2022-07-29T06:13:43;9.57;;;6.47;;
59468;SDS011;45277;52.768;18.262;2022-07-29T06:15:20;9.50;;;5.72;;
59468;SDS011;45277;52.768;18.262;2022-07-29T06:16:52;8.68;;;5.85;;
59468;SDS011;45277;52.768;18.262;2022-07-29T06:18:23;12.00;;;6.10;;
59468;SDS011;45277;52.768;18.262;2022-07-29T06:19:56;10.20;;;5.68;;
59468;SDS011;45277;52.768;18.262;2022-07-29T06:21:29;7.22;;;5.50;;
59468;SDS011;45277;52.768;18.262;2022-07-29T06:23:00;12.02;;;5.43;;
59468;SDS011;45277;52.768;18.262;2022-07-29T06:24:32;8.07;;;5.45;;
59468;SDS011;45277;52.768;18.262;2022-07-29T06:26:04;6.80;;;5.20;;
59468;SDS011;45277;52.768;18.262;2022-07-29T06:27:36;7.18;;;4.97;;
59468;SDS011;45277;52.768;18.262;2022-07-29T06:29:10;8.27;;;4.88;;
59468;SDS011;45277;52.768;18.262;2022-07-29T06:30:42;12.63;;;5.13;;
59468;SDS011;45277;52.768;18.262;2022-07-29T06:32:16;11.13;;;4.82;;
59468;SDS011;45277;52.768;18.262;2022-07-29T06:33:47;5.78;;;4.40;;
59468;SDS011;45277;52.768;18.262;2022-07-29T06:35:18;7.97;;;4.28;;
59468;SDS011;45277;52.768;18.262;2022-07-29T06:36:50;4.30;;;3.85;;
59468;SDS011;45277;52.768;18.262;2022-07-29T06:38:23;5.40;;;4.22;;
59468;SDS011;45277;52.768;18.262;2022-07-29T06:39:54;4.80;;;4.15;;
59468;SDS011;45277;52.768;18.262;2022-07-29T06:41:48;6.20;;;4.25;;
59468;SDS011;45277;52.768;18.262;2022-07-29T06:43:21;5.45;;;4.25;;
59468;SDS011;45277;52.768;18.262;2022-07-29T06:44:52;5.03;;;4.13;;
59468;SDS011;45277;52.768;18.262;2022-07-29T06:46:24;4.85;;;4.22;;
59468;SDS011;45277;52.768;18.262;2022-07-29T06:47:56;6.00;;;3.83;;
59468;SDS011;45277;52.768;18.262;2022-07-29T06:49:28;5.80;;;4.13;;
59468;SDS011;45277;52.768;18.262;2022-07-29T06:51:00;5.30;;;3.88;;
59468;SDS011;45277;52.768;18.262;2022-07-29T06:52:32;4.47;;;3.83;;
59468;SDS011;45277;52.768;18.262;2022-07-29T06:54:03;4.40;;;4.00;;
59468;SDS011;45277;52.768;18.262;2022-07-29T06:55:36;4.78;;;3.97;;
59468;SDS011;45277;52.768;18.262;2022-07-29T06:57:08;5.50;;;3.72;;
59468;SDS011;45277;52.768;18.262;2022-07-29T06:58:39;6.25;;;3.70;;
59468;SDS011;45277;52.768;18.262;2022-07-29T07:00:11;4.25;;;3.50;;
59468;SDS011;45277;52.768;18.262;2022-07-29T07:01:44;3.88;;;3.47;;
59468;SDS011;45277;52.768;18.262;2022-07-29T07:03:16;3.65;;;3.25;;
59468;SDS011;45277;52.768;18.262;2022-07-29T07:04:48;5.63;;;3.20;;
59468;SDS011;45277;52.768;18.262;2022-07-29T07:06:24;3.22;;;2.90;;
59468;SDS011;45277;52.768;18.262;2022-07-29T07:07:58;3.35;;;3.03;;
59468;SDS011;45277;52.768;18.262;2022-07-29T07:09:31;6.70;;;3.28;;
59468;SDS011;45277;52.768;18.262;2022-07-29T07:11:03;3.55;;;2.80;;
59468;SDS011;45277;52.768;18.262;2022-07-29T07:12:36;6.43;;;3.50;;
59468;SDS011;45277;52.768;18.262;2022-07-29T07:14:07;5.88;;;3.42;;
59468;SDS011;45277;52.768;18.262;2022-07-29T07:15:40;3.85;;;3.35;;
59468;SDS011;45277;52.768;18.262;2022-07-29T07:17:21;4.60;;;2.90;;
59468;SDS011;45277;52.768;18.262;2022-07-29T07:18:54;5.40;;;2.70;;
59468;SDS011;45277;52.768;18.262;2022-07-29T07:20:26;11.23;;;2.80;;
59468;SDS011;45277;52.768;18.262;2022-07-29T07:21:59;11.75;;;3.05;;
59468;SDS011;45277;52.768;18.262;2022-07-29T07:23:31;4.47;;;2.85;;
59468;SDS011;45277;52.768;18.262;2022-07-29T07:25:04;6.75;;;3.17;;
59468;SDS011;45277;52.768;18.262;2022-07-29T07:26:37;5.32;;;3.40;;
59468;SDS011;45277;52.768;18.262;2022-07-29T07:28:19;6.40;;;3.15;;
59468;SDS011;45277;52.768;18.262;2022-07-29T07:29:51;7.50;;;3.40;;
59468;SDS011;45277;52.768;18.262;2022-07-29T07:31:22;2.92;;;2.70;;
59468;SDS011;45277;52.768;18.262;2022-07-29T07:32:54;7.03;;;3.03;;
59468;SDS011;45277;52.768;18.262;2022-07-29T07:34:26;4.35;;;3.05;;
59468;SDS011;45277;52.768;18.262;2022-07-29T07:35:58;5.10;;;3.20;;
59468;SDS011;45277;52.768;18.262;2022-07-29T07:37:29;6.15;;;3.40;;
59468;SDS011;45277;52.768;18.262;2022-07-29T07:39:01;3.60;;;3.30;;
59468;SDS011;45277;52.768;18.262;2022-07-29T07:40:43;7.15;;;3.20;;
59468;SDS011;45277;52.768;18.262;2022-07-29T07:42:20;6.55;;;3.10;;
59468;SDS011;45277;52.768;18.262;2022-07-29T07:43:51;4.50;;;3.33;;
59468;SDS011;45277;52.768;18.262;2022-07-29T07:45:23;5.25;;;3.05;;
59468;SDS011;45277;52.768;18.262;2022-07-29T07:47:05;4.03;;;3.03;;
59468;SDS011;45277;52.768;18.262;2022-07-29T07:48:38;6.07;;;2.95;;
59468;SDS011;45277;52.768;18.262;2022-07-29T07:50:10;6.60;;;3.53;;
59468;SDS011;45277;52.768;18.262;2022-07-29T07:51:42;3.30;;;3.00;;
59468;SDS011;45277;52.768;18.262;2022-07-29T07:53:28;8.63;;;3.40;;
59468;SDS011;45277;52.768;18.262;2022-07-29T07:55:01;7.95;;;3.30;;
59468;SDS011;45277;52.768;18.262;2022-07-29T07:56:34;6.22;;;3.20;;
59468;SDS011;45277;52.768;18.262;2022-07-29T07:58:06;3.90;;;3.30;;
59468;SDS011;45277;52.768;18.262;2022-07-29T07:59:40;7.05;;;3.08;;
59468;SDS011;45277;52.768;18.262;2022-07-29T08:01:20;5.20;;;3.17;;
59468;SDS011;45277;52.768;18.262;2022-07-29T08:02:53;6.38;;;3.00;;
59468;SDS011;45277;52.768;18.262;2022-07-29T08:04:25;7.68;;;3.00;;
59468;SDS011;45277;52.768;18.262;2022-07-29T08:05:59;5.65;;;3.22;;
59468;SDS011;45277;52.768;18.262;2022-07-29T08:07:31;8.98;;;3.10;;
59468;SDS011;45277;52.768;18.262;2022-07-29T08:09:03;4.00;;;3.00;;
59468;SDS011;45277;52.768;18.262;2022-07-29T08:10:35;3.03;;;2.72;;
59468;SDS011;45277;52.768;18.262;2022-07-29T08:12:32;6.88;;;3.25;;
59468;SDS011;45277;52.768;18.262;2022-07-29T08:14:03;5.82;;;2.90;;
59468;SDS011;45277;52.768;18.262;2022-07-29T08:15:38;6.68;;;3.47;;
59468;SDS011;45277;52.768;18.262;2022-07-29T08:17:14;5.75;;;3.28;;
59468;SDS011;45277;52.768;18.262;2022-07-29T08:18:47;11.23;;;3.20;;
59468;SDS011;45277;52.768;18.262;2022-07-29T08:20:19;3.78;;;2.90;;
59468;SDS011;45277;52.768;18.262;2022-07-29T08:21:52;4.80;;;3.20;;
59468;SDS011;45277;52.768;18.262;2022-07-29T08:23:25;7.70;;;3.03;;
59468;SDS011;45277;52.768;18.262;2022-07-29T08:24:58;3.88;;;3.08;;
59468;SDS011;45277;52.768;18.262;2022-07-29T08:26:29;6.60;;;3.25;;
59468;SDS011;45277;52.768;18.262;2022-07-29T08:28:03;7.50;;;3.20;;
59468;SDS011;45277;52.768;18.262;2022-07-29T08:29:35;5.35;;;3.42;;
59468;SDS011;45277;52.768;18.262;2022-07-29T08:31:07;9.38;;;3.00;;
59468;SDS011;45277;52.768;18.262;2022-07-29T08:32:39;12.80;;;3.08;;
59468;SDS011;45277;52.768;18.262;2022-07-29T08:34:10;8.85;;;3.00;;
59468;SDS011;45277;52.768;18.262;2022-07-29T08:35:42;5.18;;;3.40;;
59468;SDS011;45277;52.768;18.262;2022-07-29T08:37:20;10.40;;;3.88;;
59468;SDS011;45277;52.768;18.262;2022-07-29T08:38:52;4.70;;;3.03;;
59468;SDS011;45277;52.768;18.262;2022-07-29T08:40:24;3.53;;;2.90;;
59468;SDS011;45277;52.768;18.262;2022-07-29T08:41:56;3.70;;;2.95;;
59468;SDS011;45277;52.768;18.262;2022-07-29T08:43:28;6.18;;;3.30;;
59468;SDS011;45277;52.768;18.262;2022-07-29T08:45:00;6.03;;;2.92;;
59468;SDS011;45277;52.768;18.262;2022-07-29T08:46:32;8.00;;;3.03;;
59468;SDS011;45277;52.768;18.262;2022-07-29T08:48:04;7.15;;;2.80;;
59468;SDS011;45277;52.768;18.262;2022-07-29T08:49:37;8.30;;;2.97;;
59468;SDS011;45277;52.768;18.262;2022-07-29T08:51:08;3.60;;;3.08;;
59468;SDS011;45277;52.768;18.262;2022-07-29T08:52:49;4.72;;;3.00;;
59468;SDS011;45277;52.768;18.262;2022-07-29T08:54:21;7.93;;;3.13;;
59468;SDS011;45277;52.768;18.262;2022-07-29T08:55:54;11.23;;;3.33;;
59468;SDS011;45277;52.768;18.262;2022-07-29T08:57:27;6.63;;;2.65;;
59468;SDS011;45277;52.768;18.262;2022-07-29T08:59:04;12.73;;;2.78;;
59468;SDS011;45277;52.768;18.262;2022-07-29T09:00:41;11.93;;;3.53;;
59468;SDS011;45277;52.768;18.262;2022-07-29T09:02:20;9.48;;;3.10;;
59468;SDS011;45277;52.768;18.262;2022-07-29T09:03:55;3.00;;;2.63;;
59468;SDS011;45277;52.768;18.262;2022-07-29T09:05:29;6.30;;;2.80;;
59468;SDS011;45277;52.768;18.262;2022-07-29T09:07:04;3.78;;;2.67;;
59468;SDS011;45277;52.768;18.262;2022-07-29T09:08:37;5.13;;;2.40;;
59468;SDS011;45277;52.768;18.262;2022-07-29T09:10:09;29.30;;;3.63;;
59468;SDS011;45277;52.768;18.262;2022-07-29T09:11:41;8.60;;;2.40;;
59468;SDS011;45277;52.768;18.262;2022-07-29T09:13:12;26.85;;;3.83;;
59468;SDS011;45277;52.768;18.262;2022-07-29T09:14:44;6.07;;;2.60;;
59468;SDS011;45277;52.768;18.262;2022-07-29T09:16:17;5.40;;;2.40;;
59468;SDS011;45277;52.768;18.262;2022-07-29T09:17:49;4.47;;;2.50;;
59468;SDS011;45277;52.768;18.262;2022-07-29T09:19:28;6.70;;;2.25;;
59468;SDS011;45277;52.768;18.262;2022-07-29T09:22:52;11.93;;;2.33;;
59468;SDS011;45277;52.768;18.262;2022-07-29T09:24:35;6.90;;;2.38;;
59468;SDS011;45277;52.768;18.262;2022-07-29T09:26:14;8.77;;;2.70;;
59468;SDS011;45277;52.768;18.262;2022-07-29T09:27:49;8.60;;;2.70;;
59468;SDS011;45277;52.768;18.262;2022-07-29T09:29:22;11.18;;;2.60;;
59468;SDS011;45277;52.768;18.262;2022-07-29T09:30:55;2.58;;;2.17;;